createdAt,value
2019-05-17T00:00:18.661Z,71.16
2019-05-17T00:02:43.212Z,71.03
2019-05-17T00:05:08.192Z,71.21
2019-05-17T00:07:32.790Z,71.27
2019-05-17T00:09:57.299Z,71.17
2019-05-17T00:12:21.846Z,71.30
2019-05-17T00:14:47.301Z,71.27
2019-05-17T00:17:11.976Z,71.26
2019-05-17T00:19:36.967Z,71.07
2019-05-17T00:22:01.844Z,71.15
2019-05-17T00:24:26.632Z,71.38
2019-05-17T00:26:51.251Z,71.10
2019-05-17T00:29:17.295Z,71.21
2019-05-17T00:31:41.988Z,71.25
2019-05-17T00:34:07.283Z,71.29
2019-05-17T00:36:32.026Z,71.42
2019-05-17T00:38:56.883Z,71.34
2019-05-17T00:41:21.567Z,71.29
2019-05-17T00:43:46.259Z,71.09
2019-05-17T00:46:10.808Z,71.16
2019-05-17T00:48:37.283Z,70.93
2019-05-17T00:51:02.473Z,71.08
2019-05-17T00:53:27.529Z,71.06
2019-05-17T00:55:52.058Z,71.01
2019-05-17T00:58:17.442Z,70.92
2019-05-17T01:00:43.488Z,71.39
2019-05-17T01:03:10.359Z,71.29
2019-05-17T01:05:38.395Z,71.28
2019-05-17T01:08:02.867Z,71.38
2019-05-17T01:10:27.376Z,71.14
2019-05-17T01:12:51.950Z,71.47
2019-05-17T01:15:18.033Z,71.28
2019-05-17T01:17:42.507Z,71.29
2019-05-17T01:20:07.978Z,71.17
2019-05-17T01:22:32.453Z,71.24
2019-05-17T01:24:57.051Z,71.32
2019-05-17T01:27:21.531Z,71.31
2019-05-17T01:29:46.578Z,70.99
2019-05-17T01:32:11.290Z,71.04
2019-05-17T01:34:37.568Z,71.25
2019-05-17T01:37:01.950Z,71.28
2019-05-17T01:39:27.496Z,71.20
2019-05-17T01:41:52.579Z,71.18
2019-05-17T01:44:17.161Z,71.24
2019-05-17T01:46:41.631Z,71.21
2019-05-17T01:49:06.846Z,71.31
2019-05-17T01:51:31.601Z,71.06
2019-05-17T01:53:57.343Z,71.07
2019-05-17T01:56:22.204Z,71.18
2019-05-17T01:58:47.143Z,71.14
2019-05-17T02:01:11.600Z,71.14
2019-05-17T02:03:37.548Z,71.26
2019-05-17T02:06:02.101Z,71.31
2019-05-17T02:08:26.700Z,71.26
2019-05-17T02:10:51.185Z,71.19
2019-05-17T02:13:16.481Z,71.10
2019-05-17T02:15:41.029Z,71.11
2019-05-17T02:18:06.986Z,71.00
2019-05-17T02:20:31.960Z,70.99
2019-05-17T02:22:56.566Z,71.37
2019-05-17T02:25:21.199Z,71.11
2019-05-17T02:27:45.816Z,71.21
2019-05-17T02:30:14.049Z,71.09
2019-05-17T02:32:38.539Z,71.15
2019-05-17T02:35:03.542Z,70.97
2019-05-17T02:37:28.161Z,70.90
2019-05-17T02:40:02.441Z,71.06
2019-05-17T02:42:22.292Z,71.11
2019-05-17T02:44:45.115Z,71.20
2019-05-17T02:47:09.581Z,71.21
2019-05-17T02:49:34.171Z,71.15
2019-05-17T02:51:58.662Z,71.18
2019-05-17T02:54:23.663Z,71.33
2019-05-17T02:56:48.230Z,70.99
2019-05-17T02:59:13.642Z,70.86
2019-05-17T03:01:38.262Z,70.98
2019-05-17T03:04:07.059Z,70.97
2019-05-17T03:06:32.884Z,70.89
2019-05-17T03:08:57.602Z,70.87
2019-05-17T03:11:22.836Z,70.67
2019-05-17T03:13:47.482Z,70.98
2019-05-17T03:16:14.781Z,70.94
2019-05-17T03:18:38.285Z,70.85
2019-05-17T03:21:03.984Z,70.86
2019-05-17T03:23:28.927Z,70.92
2019-05-17T03:25:53.470Z,71.11
2019-05-17T03:28:18.001Z,70.90
2019-05-17T03:30:46.982Z,70.88
2019-05-17T03:33:09.025Z,71.04
2019-05-17T03:35:37.591Z,70.87
2019-05-17T03:38:03.706Z,70.90
2019-05-17T03:40:58.422Z,70.84
2019-05-17T03:42:54.017Z,70.94
2019-05-17T03:45:18.859Z,70.93
2019-05-17T03:47:44.989Z,71.13
2019-05-17T03:50:16.607Z,70.98
2019-05-17T03:52:44.465Z,70.87
2019-05-17T03:55:07.765Z,70.86
2019-05-17T03:57:32.614Z,71.02
2019-05-17T03:59:57.370Z,70.80
2019-05-17T04:02:23.033Z,70.93
2019-05-17T04:04:47.907Z,70.82
2019-05-17T04:07:12.848Z,70.66
2019-05-17T04:09:37.934Z,70.44
2019-05-17T04:12:03.047Z,70.30
2019-05-17T04:14:27.768Z,70.18
2019-05-17T04:16:53.718Z,70.28
2019-05-17T04:19:18.303Z,69.97
2019-05-17T04:21:43.052Z,70.16
2019-05-17T04:24:12.395Z,69.93
2019-05-17T04:26:36.751Z,69.83
2019-05-17T04:29:03.617Z,69.68
2019-05-17T04:31:30.714Z,69.81
2019-05-17T04:33:53.978Z,69.72
2019-05-17T04:36:18.436Z,69.63
2019-05-17T04:38:43.739Z,69.36
2019-05-17T04:41:08.408Z,69.66
2019-05-17T04:43:33.667Z,69.46
2019-05-17T04:45:58.180Z,69.40
2019-05-17T04:48:23.405Z,69.43
2019-05-17T04:50:48.138Z,68.82
2019-05-17T04:53:13.289Z,69.12
2019-05-17T04:55:38.053Z,68.79
2019-05-17T04:58:03.920Z,68.62
2019-05-17T05:00:29.273Z,68.52
2019-05-17T05:02:53.830Z,69.11
2019-05-17T05:05:18.417Z,68.79
2019-05-17T05:07:43.844Z,68.63
2019-05-17T05:10:09.104Z,68.44
2019-05-17T05:12:33.870Z,68.02
2019-05-17T05:14:58.422Z,67.98
2019-05-17T05:17:22.885Z,67.71
2019-05-17T05:19:47.352Z,67.52
2019-05-17T05:22:13.566Z,67.26
2019-05-17T05:24:38.153Z,67.13
2019-05-17T05:27:02.870Z,67.55
2019-05-17T05:29:27.360Z,67.35
2019-05-17T05:31:51.916Z,67.30
2019-05-17T05:34:16.378Z,67.11
2019-05-17T05:36:41.911Z,67.08
2019-05-17T05:39:07.581Z,67.30
2019-05-17T05:41:32.160Z,67.21
2019-05-17T05:43:56.627Z,67.13
2019-05-17T05:46:22.381Z,66.63
2019-05-17T05:48:47.131Z,68.25
2019-05-17T05:51:13.743Z,66.95
2019-05-17T05:53:38.009Z,67.11
2019-05-17T05:56:03.495Z,66.76
2019-05-17T05:58:28.252Z,66.51
2019-05-17T06:00:53.270Z,67.00
2019-05-17T06:03:17.836Z,66.75
2019-05-17T06:05:42.662Z,66.66
2019-05-17T06:08:07.254Z,66.19
2019-05-17T06:10:32.500Z,66.94
2019-05-17T06:12:57.094Z,65.95
2019-05-17T06:15:22.152Z,65.44
2019-05-17T06:17:46.622Z,65.23
2019-05-17T06:20:11.921Z,65.03
2019-05-17T06:22:36.422Z,65.34
2019-05-17T06:25:03.780Z,65.03
2019-05-17T06:27:27.115Z,64.91
2019-05-17T06:29:51.678Z,64.89
2019-05-17T06:32:16.108Z,65.97
2019-05-17T06:34:42.227Z,65.50
2019-05-17T06:37:07.058Z,64.87
2019-05-17T06:39:32.887Z,64.10
2019-05-17T06:41:57.666Z,63.90
2019-05-17T06:44:22.150Z,63.39
2019-05-17T06:46:46.607Z,63.25
2019-05-17T06:49:11.746Z,63.56
2019-05-17T06:51:36.380Z,63.49
2019-05-17T06:54:01.811Z,63.61
2019-05-17T06:56:26.333Z,63.46
2019-05-17T06:58:50.889Z,63.16
2019-05-17T07:01:15.343Z,63.46
2019-05-17T07:03:40.056Z,63.63
2019-05-17T07:06:06.307Z,63.89
2019-05-17T07:08:30.766Z,63.60
2019-05-17T07:10:55.246Z,63.82
2019-05-17T07:13:19.956Z,64.03
2019-05-17T07:15:47.818Z,64.61
2019-05-17T07:18:10.656Z,64.07
2019-05-17T07:20:35.128Z,63.76
2019-05-17T07:23:00.522Z,63.95
2019-05-17T07:25:25.280Z,62.96
2019-05-17T07:27:50.393Z,63.12
2019-05-17T07:30:15.682Z,63.32
2019-05-17T07:32:40.821Z,63.17
2019-05-17T07:35:06.621Z,63.17
2019-05-17T07:37:31.102Z,62.63
2019-05-17T07:40:01.187Z,63.63
2019-05-17T07:42:21.764Z,62.50
2019-05-17T07:44:46.231Z,64.24
2019-05-17T07:47:10.705Z,62.98
2019-05-17T07:49:35.266Z,62.31
2019-05-17T07:52:00.693Z,62.37
2019-05-17T07:54:25.266Z,62.24
2019-05-17T07:56:50.547Z,63.36
2019-05-17T07:59:15.259Z,63.14
2019-05-17T08:01:41.239Z,62.88
2019-05-17T08:04:05.961Z,62.26
2019-05-17T08:06:30.787Z,61.52
2019-05-17T08:08:55.196Z,61.88
2019-05-17T08:11:19.797Z,61.24
2019-05-17T08:13:45.849Z,61.13
2019-05-17T08:16:10.501Z,61.09
2019-05-17T08:18:34.954Z,62.10
2019-05-17T08:20:59.828Z,60.97
2019-05-17T08:23:24.433Z,60.24
2019-05-17T08:25:53.804Z,59.54
2019-05-17T08:28:15.075Z,58.82
2019-05-17T08:30:40.951Z,58.58
2019-05-17T08:33:05.714Z,58.75
2019-05-17T08:35:30.417Z,58.53
2019-05-17T08:37:54.917Z,58.04
2019-05-17T08:40:20.132Z,58.07
2019-05-17T08:42:44.651Z,58.00
2019-05-17T08:45:09.900Z,58.78
2019-05-17T08:47:34.404Z,58.47
2019-05-17T08:50:00.423Z,58.55
2019-05-17T08:52:29.414Z,58.02
2019-05-17T08:54:55.066Z,57.13
2019-05-17T08:57:20.647Z,56.49
2019-05-17T08:59:45.216Z,57.64
2019-05-17T09:02:10.817Z,56.68
2019-05-17T09:04:35.454Z,56.67
2019-05-17T09:07:02.807Z,55.53
2019-05-17T09:09:26.279Z,56.61
2019-05-17T09:11:50.761Z,56.78
2019-05-17T09:14:15.207Z,55.74
2019-05-17T09:16:40.210Z,56.77
2019-05-17T09:19:04.867Z,55.74
2019-05-17T09:21:31.334Z,56.16
2019-05-17T09:23:55.496Z,55.66
2019-05-17T09:26:20.150Z,55.42
2019-05-17T09:28:44.610Z,54.80
2019-05-17T09:31:10.391Z,56.61
2019-05-17T09:33:34.953Z,55.08
2019-05-17T09:36:00.678Z,55.05
2019-05-17T09:38:25.520Z,54.00
2019-05-17T09:40:50.643Z,54.15
2019-05-17T09:43:16.817Z,53.43
2019-05-17T09:45:41.339Z,53.51
2019-05-17T09:48:06.054Z,54.83
2019-05-17T09:50:30.584Z,53.20
2019-05-17T09:52:55.162Z,53.44
2019-05-17T09:55:19.761Z,52.86
2019-05-17T09:57:44.265Z,53.52
2019-05-17T10:00:10.242Z,53.70
2019-05-17T10:02:34.830Z,52.94
2019-05-17T10:04:59.822Z,54.37
2019-05-17T10:07:24.506Z,53.37
2019-05-17T10:09:50.239Z,53.99
2019-05-17T10:12:14.805Z,53.55
2019-05-17T10:14:39.259Z,53.17
2019-05-17T10:17:04.584Z,53.48
2019-05-17T10:19:29.518Z,53.96
2019-05-17T10:21:54.070Z,54.93
2019-05-17T10:24:21.297Z,54.00
2019-05-17T10:26:44.833Z,53.16
2019-05-17T10:29:09.987Z,52.49
2019-05-17T10:31:34.594Z,52.64
2019-05-17T10:34:01.085Z,51.04
2019-05-17T10:36:25.224Z,50.59
2019-05-17T10:38:50.179Z,50.48
2019-05-17T10:41:14.995Z,52.46
2019-05-17T10:43:39.489Z,53.96
2019-05-17T10:46:04.077Z,52.39
2019-05-17T10:48:30.106Z,51.51
2019-05-17T10:50:54.675Z,51.37
2019-05-17T10:53:20.454Z,51.87
2019-05-17T10:55:45.044Z,50.66
2019-05-17T10:58:10.209Z,53.17
2019-05-17T11:00:34.871Z,53.61
2019-05-17T11:03:02.218Z,52.31
2019-05-17T11:05:26.635Z,50.25
2019-05-17T11:07:51.123Z,49.35
2019-05-17T11:10:16.604Z,49.58
2019-05-17T11:12:41.108Z,50.66
2019-05-17T11:15:11.810Z,49.35
2019-05-17T11:17:33.090Z,50.46
2019-05-17T11:19:57.684Z,49.24
2019-05-17T11:22:22.180Z,49.22
2019-05-17T11:24:46.706Z,48.51
2019-05-17T11:27:11.243Z,47.88
2019-05-17T11:29:35.700Z,48.75
2019-05-17T11:32:00.276Z,48.48
2019-05-17T11:34:25.655Z,47.90
2019-05-17T11:36:50.530Z,48.07
2019-05-17T11:39:15.046Z,46.80
2019-05-17T11:41:39.517Z,46.59
2019-05-17T11:44:04.043Z,46.77
2019-05-17T11:46:36.134Z,46.16
2019-05-17T11:48:54.705Z,46.47
2019-05-17T11:51:19.124Z,45.03
2019-05-17T11:53:43.692Z,44.94
2019-05-17T11:56:08.199Z,45.53
2019-05-17T11:58:32.691Z,45.45
2019-05-17T12:00:57.257Z,46.03
2019-05-17T12:03:21.794Z,45.76
2019-05-17T12:05:46.299Z,46.31
2019-05-17T12:08:11.182Z,47.61
2019-05-17T12:10:35.697Z,46.57
2019-05-17T12:13:00.175Z,45.90
2019-05-17T12:15:24.691Z,45.26
2019-05-17T12:17:49.153Z,46.06
2019-05-17T12:20:14.229Z,45.06
2019-05-17T12:22:38.771Z,44.64
2019-05-17T12:25:04.647Z,44.73
2019-05-17T12:27:29.109Z,44.85
2019-05-17T12:29:53.729Z,45.46
2019-05-17T12:32:18.181Z,45.41
2019-05-17T12:34:42.723Z,45.82
2019-05-17T12:37:07.238Z,46.23
2019-05-17T12:39:31.695Z,45.94
2019-05-17T12:41:56.313Z,45.65
2019-05-17T12:44:20.800Z,45.76
2019-05-17T12:46:45.236Z,48.18
2019-05-17T12:49:09.681Z,48.25
2019-05-17T12:51:34.209Z,46.37
2019-05-17T12:53:58.676Z,45.75
2019-05-17T12:56:23.224Z,44.76
2019-05-17T12:58:47.751Z,44.73
2019-05-17T13:01:12.260Z,44.87
2019-05-17T13:03:36.732Z,45.41
2019-05-17T13:06:01.249Z,44.46
2019-05-17T13:08:25.735Z,44.69
2019-05-17T13:10:50.176Z,45.37
2019-05-17T13:13:14.719Z,45.35
2019-05-17T13:15:39.266Z,45.63
2019-05-17T13:18:03.959Z,44.84
2019-05-17T13:20:28.491Z,45.19
2019-05-17T13:22:53.063Z,45.86
2019-05-17T13:25:17.613Z,45.17
2019-05-17T13:27:42.063Z,45.50
2019-05-17T13:30:10.529Z,44.80
2019-05-17T13:32:34.970Z,45.05
2019-05-17T13:34:59.550Z,46.11
2019-05-17T13:37:24.085Z,46.13
2019-05-17T13:39:48.688Z,45.72
2019-05-17T13:42:13.253Z,45.51
2019-05-17T13:44:37.762Z,45.98
2019-05-17T13:47:02.408Z,45.27
2019-05-17T13:49:26.954Z,45.38
2019-05-17T13:51:51.424Z,45.59
2019-05-17T13:54:15.914Z,45.44
2019-05-17T13:56:40.437Z,46.18
2019-05-17T13:59:05.054Z,46.29
2019-05-17T14:01:29.513Z,45.78
2019-05-17T14:03:54.033Z,45.83
2019-05-17T14:06:18.448Z,45.85
2019-05-17T14:08:43.099Z,46.13
2019-05-17T14:11:07.563Z,45.74
2019-05-17T14:13:32.084Z,45.27
2019-05-17T14:15:56.634Z,45.38
2019-05-17T14:18:21.073Z,45.27
2019-05-17T14:20:45.676Z,45.92
2019-05-17T14:23:10.203Z,45.84
2019-05-17T14:25:34.739Z,46.57
2019-05-17T14:27:59.264Z,46.12
2019-05-17T14:30:24.073Z,45.28
2019-05-17T14:32:48.593Z,45.56
2019-05-17T14:35:14.803Z,45.66
2019-05-17T14:37:39.329Z,45.24
2019-05-17T14:40:05.666Z,44.51
2019-05-17T14:42:30.119Z,44.93
2019-05-17T14:44:54.748Z,44.54
2019-05-17T14:47:19.238Z,45.26
2019-05-17T14:49:43.809Z,45.75
2019-05-17T14:52:08.317Z,45.10
2019-05-17T14:54:32.838Z,45.20
2019-05-17T14:56:57.302Z,45.35
2019-05-17T14:59:21.769Z,46.37
2019-05-17T15:01:46.333Z,45.16
2019-05-17T15:04:10.770Z,45.14
2019-05-17T15:06:35.294Z,46.36
2019-05-17T15:08:59.758Z,45.45
2019-05-17T15:11:24.379Z,45.04
2019-05-17T15:13:48.839Z,45.76
2019-05-17T15:16:13.376Z,46.02
2019-05-17T15:18:37.806Z,45.21
2019-05-17T15:21:02.417Z,45.77
2019-05-17T15:23:26.844Z,45.44
2019-05-17T15:25:51.302Z,45.65
2019-05-17T15:28:15.810Z,45.77
2019-05-17T15:30:40.264Z,45.91
2019-05-17T15:33:04.779Z,45.37
2019-05-17T15:35:29.280Z,45.74
2019-05-17T15:37:53.750Z,45.58
2019-05-17T15:40:18.361Z,45.55
2019-05-17T15:42:44.504Z,45.65
2019-05-17T15:45:09.775Z,44.93
2019-05-17T15:47:34.561Z,45.03
2019-05-17T15:49:58.980Z,45.00
2019-05-17T15:52:23.618Z,45.47
2019-05-17T15:54:48.784Z,46.07
2019-05-17T15:57:13.331Z,46.06
2019-05-17T15:59:37.839Z,46.27
2019-05-17T16:02:02.364Z,47.05
2019-05-17T16:04:26.784Z,46.55
2019-05-17T16:06:51.335Z,46.00
2019-05-17T16:09:15.844Z,45.58
2019-05-17T16:11:40.389Z,45.99
2019-05-17T16:14:04.959Z,45.62
2019-05-17T16:16:29.469Z,45.51
2019-05-17T16:18:53.914Z,46.17
2019-05-17T16:21:18.381Z,45.65
2019-05-17T16:23:42.952Z,45.69
2019-05-17T16:26:07.408Z,45.45
2019-05-17T16:28:31.883Z,45.41
2019-05-17T16:30:56.406Z,46.72
2019-05-17T16:33:20.862Z,45.56
2019-05-17T16:35:45.442Z,45.43
2019-05-17T16:38:09.906Z,46.88
2019-05-17T16:40:34.447Z,46.92
2019-05-17T16:42:58.977Z,46.52
2019-05-17T16:45:23.485Z,46.24
2019-05-17T16:47:48.098Z,46.94
2019-05-17T16:50:12.680Z,46.01
2019-05-17T16:52:37.148Z,45.67
2019-05-17T16:55:01.798Z,46.20
2019-05-17T16:57:26.344Z,46.49
2019-05-17T16:59:50.847Z,46.72
2019-05-17T17:02:15.396Z,46.77
2019-05-17T17:04:39.847Z,46.32
2019-05-17T17:07:04.506Z,46.70
2019-05-17T17:09:32.536Z,46.82
2019-05-17T17:11:58.684Z,47.58
2019-05-17T17:14:24.675Z,47.36
2019-05-17T17:16:49.220Z,47.67
2019-05-17T17:19:13.801Z,46.90
2019-05-17T17:21:38.322Z,46.52
2019-05-17T17:24:02.854Z,46.28
2019-05-17T17:26:27.355Z,46.52
2019-05-17T17:28:51.955Z,46.54
2019-05-17T17:31:17.567Z,46.75
2019-05-17T17:33:42.102Z,46.26
2019-05-17T17:36:06.616Z,46.62
2019-05-17T17:38:31.150Z,46.85
2019-05-17T17:40:55.591Z,46.43
2019-05-17T17:43:20.170Z,46.42
2019-05-17T17:45:44.750Z,46.52
2019-05-17T17:48:09.230Z,46.90
2019-05-17T17:50:33.690Z,46.89
2019-05-17T17:52:58.260Z,47.27
2019-05-17T17:55:22.736Z,47.10
2019-05-17T17:57:47.332Z,47.57
2019-05-17T18:00:13.267Z,47.81
2019-05-17T18:02:37.718Z,48.06
2019-05-17T18:05:02.510Z,48.06
2019-05-17T18:07:26.984Z,48.20
2019-05-17T18:09:51.512Z,48.29
2019-05-17T18:12:16.083Z,48.29
2019-05-17T18:14:40.622Z,48.68
2019-05-17T18:17:05.139Z,48.61
2019-05-17T18:19:29.793Z,49.02
2019-05-17T18:21:54.355Z,49.09
2019-05-17T18:24:19.619Z,49.21
2019-05-17T18:26:44.066Z,49.34
2019-05-17T18:29:08.599Z,49.49
2019-05-17T18:31:33.226Z,49.63
2019-05-17T18:33:57.693Z,50.03
2019-05-17T18:36:22.326Z,49.92
2019-05-17T18:38:49.846Z,50.34
2019-05-17T18:41:14.323Z,50.52
2019-05-17T18:43:38.936Z,50.72
2019-05-17T18:46:03.576Z,51.47
2019-05-17T18:48:28.168Z,51.55
2019-05-17T18:50:52.705Z,51.71
2019-05-17T18:53:17.471Z,51.83
2019-05-17T18:55:42.127Z,52.57
2019-05-17T18:58:06.714Z,52.66
2019-05-17T19:00:31.191Z,52.83
2019-05-17T19:02:55.632Z,53.69
2019-05-17T19:05:20.298Z,53.58
2019-05-17T19:07:44.898Z,53.41
2019-05-17T19:10:09.829Z,53.63
2019-05-17T19:12:34.348Z,54.56
2019-05-17T19:15:00.744Z,54.63
2019-05-17T19:17:25.090Z,54.82
2019-05-17T19:19:49.571Z,54.30
2019-05-17T19:22:14.092Z,54.46
2019-05-17T19:24:38.590Z,54.84
2019-05-17T19:27:03.020Z,54.68
2019-05-17T19:29:27.471Z,54.55
2019-05-17T19:31:52.021Z,54.94
2019-05-17T19:34:16.610Z,55.17
2019-05-17T19:36:41.746Z,55.49
2019-05-17T19:39:06.791Z,55.52
2019-05-17T19:41:31.280Z,55.39
2019-05-17T19:43:55.795Z,55.78
2019-05-17T19:46:20.309Z,55.85
2019-05-17T19:48:44.777Z,55.86
2019-05-17T19:51:09.265Z,56.05
2019-05-17T19:53:33.777Z,55.83
2019-05-17T19:55:58.323Z,56.40
2019-05-17T19:58:22.862Z,56.56
2019-05-17T20:00:47.420Z,56.51
2019-05-17T20:03:12.325Z,56.65
2019-05-17T20:05:36.946Z,56.97
2019-05-17T20:08:01.392Z,57.16
2019-05-17T20:10:25.993Z,57.35
2019-05-17T20:12:50.472Z,57.54
2019-05-17T20:15:17.910Z,57.80
2019-05-17T20:17:41.604Z,57.44
2019-05-17T20:20:07.775Z,57.88
2019-05-17T20:22:32.315Z,57.93
2019-05-17T20:24:56.763Z,58.53
2019-05-17T20:27:21.246Z,58.81
2019-05-17T20:29:45.683Z,58.84
2019-05-17T20:32:10.206Z,58.80
2019-05-17T20:34:34.666Z,58.77
2019-05-17T20:36:59.140Z,58.27
2019-05-17T20:39:23.616Z,58.47
2019-05-17T20:41:48.215Z,58.71
2019-05-17T20:44:12.653Z,58.87
2019-05-17T20:46:37.210Z,59.19
2019-05-17T20:49:01.721Z,59.37
2019-05-17T20:51:26.325Z,59.18
2019-05-17T20:53:50.781Z,59.29
2019-05-17T20:56:15.359Z,59.35
2019-05-17T20:58:39.803Z,59.09
2019-05-17T21:01:04.339Z,59.32
2019-05-17T21:03:28.783Z,59.56
2019-05-17T21:05:53.285Z,59.60
2019-05-17T21:08:17.726Z,59.80
2019-05-17T21:10:42.230Z,60.06
2019-05-17T21:13:06.681Z,60.01
2019-05-17T21:15:31.122Z,60.23
2019-05-17T21:17:55.609Z,60.29
2019-05-17T21:20:20.204Z,60.23
2019-05-17T21:22:44.825Z,60.04
2019-05-17T21:25:09.612Z,60.32
2019-05-17T21:27:34.131Z,60.26
2019-05-17T21:29:58.554Z,60.54
2019-05-17T21:32:23.145Z,60.58
2019-05-17T21:34:47.647Z,60.42
2019-05-17T21:37:12.135Z,60.66
2019-05-17T21:39:36.585Z,60.29
2019-05-17T21:42:01.130Z,60.44
2019-05-17T21:44:25.640Z,60.56
2019-05-17T21:47:03.620Z,60.75
2019-05-17T21:49:16.257Z,60.75
2019-05-17T21:51:40.733Z,60.82
2019-05-17T21:54:05.286Z,60.65
2019-05-17T21:56:29.760Z,60.64
2019-05-17T21:58:54.228Z,60.60
2019-05-17T22:01:21.643Z,60.53
2019-05-17T22:03:46.237Z,61.22
2019-05-17T22:06:10.768Z,60.83
2019-05-17T22:08:35.436Z,60.99
2019-05-17T22:10:59.883Z,61.23
2019-05-17T22:13:24.469Z,60.99
2019-05-17T22:15:48.997Z,61.06
2019-05-17T22:18:13.568Z,61.25
2019-05-17T22:20:38.021Z,61.34
2019-05-17T22:23:02.541Z,61.43
2019-05-17T22:25:26.962Z,61.57
2019-05-17T22:27:51.457Z,61.71
2019-05-17T22:30:16.042Z,62.12
2019-05-17T22:32:40.569Z,61.85
2019-05-17T22:35:06.263Z,61.70
2019-05-17T22:37:30.762Z,62.03
2019-05-17T22:39:55.230Z,62.16
2019-05-17T22:42:19.720Z,62.31
2019-05-17T22:44:44.162Z,62.28
2019-05-17T22:47:08.706Z,62.52
2019-05-17T22:49:33.274Z,62.54
2019-05-17T22:51:57.828Z,62.58
2019-05-17T22:54:22.253Z,62.84
2019-05-17T22:56:47.849Z,62.56
2019-05-17T22:59:12.401Z,62.92
2019-05-17T23:01:36.920Z,62.87
2019-05-17T23:04:01.459Z,62.55
2019-05-17T23:06:25.905Z,62.61
2019-05-17T23:08:50.389Z,63.05
2019-05-17T23:11:14.952Z,63.00
2019-05-17T23:13:39.437Z,63.10
2019-05-17T23:16:05.602Z,63.46
2019-05-17T23:18:31.712Z,63.43
2019-05-17T23:20:56.295Z,63.35
2019-05-17T23:23:20.895Z,63.44
2019-05-17T23:25:45.349Z,63.27
2019-05-17T23:28:09.823Z,63.07
2019-05-17T23:30:34.350Z,62.78
2019-05-17T23:32:58.818Z,62.58
2019-05-17T23:35:23.308Z,62.86
2019-05-17T23:37:47.860Z,62.74
2019-05-17T23:40:12.550Z,62.44
2019-05-17T23:42:37.147Z,62.39
2019-05-17T23:45:01.697Z,62.16
2019-05-17T23:47:26.236Z,62.24
2019-05-17T23:49:50.765Z,62.31
2019-05-17T23:52:15.251Z,62.05
2019-05-17T23:54:40.300Z,62.20
2019-05-17T23:57:04.960Z,61.98
2019-05-17T23:59:30.040Z,61.81
